createdAt,value
2022-11-20T00:01:55.439Z,84.54
2022-11-20T00:04:25.477Z,84.61
2022-11-20T00:06:55.559Z,84.80
2022-11-20T00:09:25.584Z,84.81
2022-11-20T00:11:55.779Z,84.90
2022-11-20T00:14:25.882Z,84.74
2022-11-20T00:16:55.926Z,84.80
2022-11-20T00:19:26.010Z,84.72
2022-11-20T00:21:56.883Z,84.98
2022-11-20T00:24:26.896Z,85.00
2022-11-20T00:26:56.961Z,84.98
2022-11-20T00:29:26.950Z,84.95
2022-11-20T00:31:57.011Z,85.12
2022-11-20T00:34:26.996Z,85.04
2022-11-20T00:36:56.882Z,85.25
2022-11-20T00:39:26.861Z,85.15
2022-11-20T00:41:57.088Z,85.21
2022-11-20T00:44:26.690Z,85.15
2022-11-20T00:46:56.206Z,85.33
2022-11-20T00:49:26.308Z,85.22
2022-11-20T00:51:55.949Z,85.45
2022-11-20T00:54:25.177Z,85.57
2022-11-20T00:56:56.919Z,85.58
2022-11-20T00:59:27.563Z,85.46
2022-11-20T01:01:57.642Z,85.38
2022-11-20T01:04:26.584Z,85.34
2022-11-20T01:06:56.733Z,85.41
2022-11-20T01:09:26.740Z,85.39
2022-11-20T01:11:57.554Z,85.32
2022-11-20T01:14:29.726Z,84.83
2022-11-20T01:16:59.740Z,84.53
2022-11-20T01:19:29.855Z,84.18
2022-11-20T01:22:00.106Z,84.24
2022-11-20T01:24:30.300Z,84.32
2022-11-20T01:27:00.408Z,84.25
2022-11-20T01:29:30.637Z,84.33
2022-11-20T01:32:01.073Z,84.24
2022-11-20T01:34:31.592Z,84.06
2022-11-20T01:37:01.728Z,84.30
2022-11-20T01:39:31.881Z,83.88
2022-11-20T01:42:21.922Z,83.69
2022-11-20T01:44:52.744Z,83.30
2022-11-20T01:47:46.427Z,83.33
2022-11-20T01:50:35.546Z,83.43
2022-11-20T01:53:13.179Z,83.51
2022-11-20T01:55:53.762Z,83.81
2022-11-20T01:58:33.717Z,83.76
2022-11-20T02:01:05.586Z,83.81
2022-11-20T02:03:36.199Z,83.93
2022-11-20T02:06:27.341Z,83.85
2022-11-20T02:08:56.687Z,83.82
2022-11-20T02:11:27.282Z,83.75
2022-11-20T02:13:57.347Z,83.76
2022-11-20T02:16:30.885Z,83.87
2022-11-20T02:19:03.539Z,83.83
2022-11-20T02:21:37.555Z,83.72
2022-11-20T02:24:11.275Z,83.30
2022-11-20T02:26:52.866Z,83.28
2022-11-20T02:29:40.432Z,83.12
2022-11-20T02:32:20.615Z,83.18
2022-11-20T02:34:51.178Z,83.09
2022-11-20T02:37:22.374Z,83.10
2022-11-20T02:39:53.793Z,83.12
2022-11-20T02:42:24.006Z,82.95
2022-11-20T02:44:54.491Z,82.72
2022-11-20T02:47:24.960Z,82.73
2022-11-20T02:49:55.226Z,82.45
2022-11-20T02:52:26.321Z,82.48
2022-11-20T02:54:55.502Z,82.50
2022-11-20T02:57:25.010Z,82.54
2022-11-20T02:59:55.530Z,82.46
2022-11-20T03:02:25.937Z,82.21
2022-11-20T03:04:55.889Z,82.08
2022-11-20T03:07:24.750Z,82.20
2022-11-20T03:09:55.366Z,82.06
2022-11-20T03:12:26.181Z,81.84
2022-11-20T03:14:57.005Z,82.02
2022-11-20T03:17:27.527Z,81.99
2022-11-20T03:19:57.353Z,81.59
2022-11-20T03:22:30.091Z,81.35
2022-11-20T03:25:00.783Z,81.28
2022-11-20T03:27:35.156Z,80.92
2022-11-20T03:30:06.829Z,81.48
2022-11-20T03:32:39.663Z,81.94
2022-11-20T03:35:10.792Z,82.20
2022-11-20T03:37:39.651Z,82.20
2022-11-20T03:40:10.633Z,82.23
2022-11-20T03:42:49.134Z,82.04
2022-11-20T03:45:20.201Z,82.26
2022-11-20T03:47:50.831Z,81.91
2022-11-20T03:50:20.412Z,82.00
2022-11-20T03:52:50.791Z,81.84
2022-11-20T03:55:21.429Z,81.98
2022-11-20T03:57:50.303Z,81.97
2022-11-20T04:00:20.464Z,81.89
2022-11-20T04:02:50.580Z,81.92
2022-11-20T04:05:20.801Z,81.80
2022-11-20T04:07:51.185Z,81.67
2022-11-20T04:10:21.540Z,81.77
2022-11-20T04:12:51.651Z,81.98
2022-11-20T04:15:21.770Z,81.64
2022-11-20T04:17:52.045Z,81.61
2022-11-20T04:20:22.235Z,81.65
2022-11-20T04:22:56.071Z,81.60
2022-11-20T04:25:26.149Z,81.12
2022-11-20T04:27:56.956Z,81.55
2022-11-20T04:30:27.159Z,81.38
2022-11-20T04:32:57.264Z,81.54
2022-11-20T04:35:27.504Z,81.45
2022-11-20T04:37:56.389Z,81.56
2022-11-20T04:40:26.593Z,81.52
2022-11-20T04:42:57.143Z,81.35
2022-11-20T04:45:27.215Z,81.71
2022-11-20T04:47:57.158Z,81.42
2022-11-20T04:50:25.924Z,81.33
2022-11-20T04:52:56.478Z,81.78
2022-11-20T04:55:26.928Z,81.94
2022-11-20T04:57:56.683Z,82.04
2022-11-20T05:00:27.128Z,81.71
2022-11-20T05:02:57.948Z,81.49
2022-11-20T05:05:28.772Z,81.25
2022-11-20T05:07:59.743Z,81.41
2022-11-20T05:10:29.790Z,81.45
2022-11-20T05:12:59.735Z,81.61
2022-11-20T05:15:30.304Z,81.63
2022-11-20T05:18:00.640Z,81.49
2022-11-20T05:20:30.778Z,81.91
2022-11-20T05:23:00.756Z,81.70
2022-11-20T05:25:30.737Z,81.51
2022-11-20T05:28:00.796Z,81.53
2022-11-20T05:30:30.750Z,81.34
2022-11-20T05:33:00.714Z,81.37
2022-11-20T05:35:30.224Z,81.60
2022-11-20T05:38:00.104Z,81.63
2022-11-20T05:40:30.189Z,81.74
2022-11-20T05:43:00.935Z,81.92
2022-11-20T05:45:30.188Z,81.79
2022-11-20T05:48:03.948Z,81.81
2022-11-20T05:50:36.546Z,81.84
2022-11-20T05:53:06.723Z,81.93
2022-11-20T05:55:36.801Z,81.96
2022-11-20T05:58:06.406Z,82.11
2022-11-20T06:00:37.093Z,82.02
2022-11-20T06:03:07.034Z,82.03
2022-11-20T06:05:36.834Z,82.12
2022-11-20T06:08:06.454Z,82.09
2022-11-20T06:10:36.023Z,82.06
2022-11-20T06:13:05.235Z,82.19
2022-11-20T06:15:34.096Z,82.29
2022-11-20T06:18:03.035Z,82.13
2022-11-20T06:20:31.896Z,82.34
2022-11-20T06:23:00.716Z,82.60
2022-11-20T06:25:29.582Z,82.63
2022-11-20T06:27:58.382Z,82.60
2022-11-20T06:30:27.239Z,82.79
2022-11-20T06:32:56.121Z,83.02
2022-11-20T06:35:25.095Z,83.08
2022-11-20T06:37:53.925Z,83.23
2022-11-20T06:40:22.852Z,83.20
2022-11-20T06:42:51.663Z,83.38
2022-11-20T06:45:20.521Z,83.24
2022-11-20T06:47:49.545Z,83.43
2022-11-20T06:50:18.562Z,83.22
2022-11-20T06:52:47.369Z,83.27
2022-11-20T06:55:16.369Z,83.52
2022-11-20T06:57:45.223Z,83.72
2022-11-20T07:00:15.037Z,83.47
2022-11-20T07:02:43.875Z,83.41
2022-11-20T07:05:12.738Z,83.66
2022-11-20T07:07:41.673Z,83.85
2022-11-20T07:10:11.368Z,84.04
2022-11-20T07:12:40.235Z,84.05
2022-11-20T07:15:09.610Z,83.86
2022-11-20T07:17:38.443Z,83.92
2022-11-20T07:20:08.549Z,83.80
2022-11-20T07:22:37.615Z,84.03
2022-11-20T07:25:07.211Z,84.15
2022-11-20T07:27:36.267Z,84.17
2022-11-20T07:30:06.148Z,84.21
2022-11-20T07:32:34.952Z,84.30
2022-11-20T07:35:03.974Z,84.35
2022-11-20T07:37:35.863Z,84.29
2022-11-20T07:40:05.509Z,84.46
2022-11-20T07:42:34.343Z,84.50
2022-11-20T07:45:04.467Z,84.17
2022-11-20T07:47:38.091Z,84.34
2022-11-20T07:50:07.391Z,84.39
2022-11-20T07:52:36.335Z,84.32
2022-11-20T07:55:06.350Z,84.18
2022-11-20T07:57:35.154Z,84.41
2022-11-20T08:00:10.527Z,84.50
2022-11-20T08:02:43.161Z,84.33
2022-11-20T08:05:12.704Z,84.35
2022-11-20T08:07:45.008Z,84.36
2022-11-20T08:10:17.282Z,84.49
2022-11-20T08:13:10.793Z,84.50
2022-11-20T08:15:41.512Z,84.25
2022-11-20T08:21:06.094Z,84.46
2022-11-20T08:23:34.839Z,84.41
2022-11-20T08:26:03.679Z,84.34
2022-11-20T08:28:32.515Z,84.54
2022-11-20T08:31:02.681Z,84.36
2022-11-20T08:33:33.995Z,84.43
2022-11-20T08:36:07.212Z,84.69
2022-11-20T08:38:36.016Z,84.49
2022-11-20T08:41:24.846Z,84.42
2022-11-20T08:44:05.370Z,84.79
2022-11-20T08:46:39.906Z,84.75
2022-11-20T08:49:11.095Z,84.52
2022-11-20T08:51:40.533Z,84.45
2022-11-20T08:54:09.814Z,84.25
2022-11-20T08:56:41.911Z,84.03
2022-11-20T08:59:36.717Z,84.03
2022-11-20T09:02:01.862Z,84.21
2022-11-20T09:04:31.381Z,84.28
2022-11-20T09:07:02.492Z,84.31
2022-11-20T09:09:32.622Z,84.11
2022-11-20T09:12:02.235Z,84.43
2022-11-20T09:14:31.912Z,84.13
2022-11-20T09:17:01.048Z,84.29
2022-11-20T09:19:36.958Z,84.28
2022-11-20T09:22:05.995Z,84.27
2022-11-20T09:24:34.975Z,84.08
2022-11-20T09:27:06.072Z,84.20
2022-11-20T09:29:35.025Z,84.08
2022-11-20T09:32:04.016Z,84.09
2022-11-20T09:34:33.048Z,84.17
2022-11-20T09:37:06.251Z,84.39
2022-11-20T09:39:40.283Z,84.03
2022-11-20T09:42:23.383Z,84.07
2022-11-20T09:45:41.635Z,84.16
2022-11-20T09:48:37.081Z,84.12
2022-11-20T09:51:37.689Z,83.91
2022-11-20T09:54:22.205Z,84.10
2022-11-20T09:57:03.815Z,84.09
2022-11-20T09:59:45.585Z,84.16
2022-11-20T10:02:39.061Z,84.17
2022-11-20T10:05:20.156Z,84.23
2022-11-20T10:07:56.700Z,84.24
2022-11-20T10:10:33.146Z,84.22
2022-11-20T10:13:20.448Z,84.15
2022-11-20T10:16:33.570Z,84.10
2022-11-20T10:19:16.675Z,83.86
2022-11-20T10:22:27.082Z,83.85
2022-11-20T10:25:15.392Z,84.09
2022-11-20T10:27:58.392Z,84.13
2022-11-20T10:30:28.739Z,84.22
2022-11-20T10:33:15.644Z,84.26
2022-11-20T10:35:53.359Z,84.17
2022-11-20T10:38:44.640Z,84.11
2022-11-20T10:41:33.113Z,84.31
2022-11-20T10:44:43.569Z,84.26
2022-11-20T10:47:20.114Z,84.12
2022-11-20T10:49:55.592Z,83.99
2022-11-20T10:52:27.623Z,83.75
2022-11-20T10:55:27.893Z,83.53
2022-11-20T10:58:12.843Z,83.48
2022-11-20T11:00:42.193Z,83.54
2022-11-20T11:03:30.868Z,83.27
2022-11-20T11:06:04.155Z,83.26
2022-11-20T11:08:39.051Z,83.37
2022-11-20T11:11:23.666Z,83.18
2022-11-20T11:13:53.100Z,83.13
2022-11-20T11:16:28.494Z,83.08
2022-11-20T11:19:09.481Z,83.02
2022-11-20T11:21:44.786Z,82.84
2022-11-20T11:24:42.318Z,83.16
2022-11-20T11:27:19.285Z,83.05
2022-11-20T11:29:48.709Z,83.16
2022-11-20T11:32:22.106Z,83.18
2022-11-20T11:35:05.230Z,82.83
2022-11-20T11:37:41.112Z,82.68
2022-11-20T11:40:28.062Z,82.95
2022-11-20T11:43:06.997Z,83.10
2022-11-20T11:45:35.936Z,83.04
2022-11-20T11:48:09.777Z,83.03
2022-11-20T11:50:38.626Z,82.85
2022-11-20T11:53:21.826Z,82.84
2022-11-20T11:56:12.721Z,82.86
2022-11-20T11:58:53.367Z,82.75
2022-11-20T12:01:55.216Z,82.70
2022-11-20T12:04:48.144Z,82.92
2022-11-20T12:07:47.012Z,82.80
2022-11-20T12:10:21.774Z,82.91
2022-11-20T12:13:26.125Z,82.62
2022-11-20T12:15:56.479Z,82.48
2022-11-20T12:18:26.998Z,82.13
2022-11-20T12:21:58.453Z,82.24
2022-11-20T12:24:52.207Z,82.11
2022-11-20T12:27:46.873Z,82.45
2022-11-20T12:30:23.737Z,82.35
2022-11-20T12:33:22.334Z,82.34
2022-11-20T12:36:19.961Z,82.31
2022-11-20T12:39:14.802Z,82.19
2022-11-20T12:42:38.575Z,82.25
2022-11-20T12:45:30.628Z,82.16
2022-11-20T12:48:27.671Z,82.27
2022-11-20T12:51:32.877Z,82.06
2022-11-20T12:54:13.202Z,82.21
2022-11-20T12:56:54.366Z,82.18
2022-11-20T13:00:15.351Z,82.30
2022-11-20T13:03:10.537Z,82.37
2022-11-20T13:05:53.313Z,82.31
2022-11-20T13:08:29.080Z,82.31
2022-11-20T13:11:04.106Z,82.30
2022-11-20T13:14:11.255Z,82.41
2022-11-20T13:16:54.120Z,82.27
2022-11-20T13:19:24.706Z,82.35
2022-11-20T13:21:54.653Z,82.44
2022-11-20T13:24:32.995Z,82.37
2022-11-20T13:27:03.589Z,82.42
2022-11-20T13:29:35.787Z,82.33
2022-11-20T13:32:16.654Z,82.34
2022-11-20T13:34:58.318Z,82.17
2022-11-20T13:37:39.450Z,82.09
2022-11-20T13:40:14.289Z,82.23
2022-11-20T13:42:56.347Z,82.44
2022-11-20T13:45:32.011Z,82.08
2022-11-20T13:48:07.774Z,82.36
2022-11-20T13:51:07.202Z,82.34
2022-11-20T13:53:37.199Z,82.16
2022-11-20T13:56:36.287Z,82.11
2022-11-20T13:59:37.478Z,82.09
2022-11-20T14:02:20.524Z,82.28
2022-11-20T14:04:54.602Z,82.29
2022-11-20T14:07:37.309Z,82.39
2022-11-20T14:10:20.061Z,82.22
2022-11-20T14:12:50.609Z,82.52
2022-11-20T14:15:33.350Z,82.61
2022-11-20T14:18:15.522Z,82.54
2022-11-20T14:20:46.505Z,82.73
2022-11-20T14:23:29.968Z,82.52
2022-11-20T14:26:01.008Z,82.59
2022-11-20T14:28:32.585Z,82.59
2022-11-20T14:31:02.626Z,82.47
2022-11-20T14:33:34.976Z,82.34
2022-11-20T14:36:05.393Z,82.51
2022-11-20T14:38:35.756Z,82.56
2022-11-20T14:41:16.884Z,82.67
2022-11-20T14:43:58.152Z,82.32
2022-11-20T14:46:31.540Z,82.59
2022-11-20T14:49:04.943Z,82.53
2022-11-20T14:51:44.004Z,82.43
2022-11-20T14:54:17.424Z,82.65
2022-11-20T14:57:03.114Z,82.63
2022-11-20T14:59:35.665Z,82.72
2022-11-20T15:02:10.095Z,82.68
2022-11-20T15:05:04.759Z,82.81
2022-11-20T15:07:37.320Z,82.87
2022-11-20T15:10:11.225Z,82.95
2022-11-20T15:12:50.959Z,83.13
2022-11-20T15:15:38.035Z,82.94
2022-11-20T15:18:18.675Z,82.96
2022-11-20T15:20:50.147Z,82.99
2022-11-20T15:23:21.156Z,82.89
2022-11-20T15:25:51.624Z,82.78
2022-11-20T15:28:31.087Z,82.82
2022-11-20T15:31:01.905Z,82.91
2022-11-20T15:33:33.186Z,82.85
2022-11-20T15:36:03.620Z,82.82
2022-11-20T15:38:34.554Z,82.90
2022-11-20T15:41:04.935Z,82.95
2022-11-20T15:43:34.468Z,82.96
2022-11-20T15:46:08.055Z,82.97
2022-11-20T15:48:47.400Z,82.86
2022-11-20T15:51:21.148Z,82.81
2022-11-20T15:53:49.978Z,83.00
2022-11-20T15:56:21.061Z,82.85
2022-11-20T15:58:51.130Z,82.66
2022-11-20T16:01:25.894Z,82.75
2022-11-20T16:03:56.279Z,82.78
2022-11-20T16:06:26.666Z,82.73
2022-11-20T16:08:57.325Z,82.73
2022-11-20T16:11:28.473Z,82.83
2022-11-20T16:14:17.670Z,82.76
2022-11-20T16:16:48.453Z,82.73
2022-11-20T16:19:19.513Z,82.65
2022-11-20T16:21:50.186Z,82.60
2022-11-20T16:24:21.419Z,82.47
2022-11-20T16:26:52.428Z,82.56
2022-11-20T16:29:23.192Z,82.60
2022-11-20T16:31:53.495Z,82.68
2022-11-20T16:34:23.697Z,82.47
2022-11-20T16:36:54.627Z,82.44
2022-11-20T16:39:26.786Z,82.36
2022-11-20T16:41:56.889Z,82.33
2022-11-20T16:44:26.177Z,82.34
2022-11-20T16:46:56.922Z,82.33
2022-11-20T16:49:27.317Z,82.36
2022-11-20T16:51:57.801Z,82.29
2022-11-20T16:54:28.154Z,82.23
2022-11-20T16:56:58.623Z,82.27
2022-11-20T16:59:28.817Z,82.23
2022-11-20T17:02:03.294Z,81.97
2022-11-20T17:04:33.324Z,81.71
2022-11-20T17:07:08.028Z,81.57
2022-11-20T17:09:40.600Z,81.26
2022-11-20T17:12:11.045Z,81.08
2022-11-20T17:14:40.917Z,80.95
2022-11-20T17:17:11.003Z,80.62
2022-11-20T17:19:40.898Z,80.68
2022-11-20T17:22:11.131Z,80.81
2022-11-20T17:24:41.489Z,80.91
2022-11-20T17:27:12.040Z,81.42
2022-11-20T17:29:42.394Z,81.39
2022-11-20T17:32:12.495Z,81.48
2022-11-20T17:34:42.171Z,81.71
2022-11-20T17:37:10.996Z,81.62
2022-11-20T17:39:41.345Z,81.77
2022-11-20T17:42:30.572Z,81.87
2022-11-20T17:45:00.522Z,81.89
2022-11-20T17:47:30.480Z,82.08
2022-11-20T17:50:00.283Z,82.05
2022-11-20T17:52:30.921Z,81.99
2022-11-20T17:55:01.153Z,82.09
2022-11-20T17:57:49.980Z,82.19
2022-11-20T18:00:20.997Z,82.01
2022-11-20T18:02:50.419Z,82.01
2022-11-20T18:05:20.481Z,81.86
2022-11-20T18:07:54.347Z,81.97
2022-11-20T18:10:24.484Z,81.88
2022-11-20T18:12:54.349Z,82.00
2022-11-20T18:15:24.504Z,82.25
2022-11-20T18:17:54.598Z,82.01
2022-11-20T18:20:30.185Z,82.31
2022-11-20T18:23:03.222Z,82.12
2022-11-20T18:25:32.867Z,81.55
2022-11-20T18:28:02.547Z,81.66
2022-11-20T18:30:32.968Z,82.02
2022-11-20T18:33:02.021Z,82.11
2022-11-20T18:35:32.427Z,82.29
2022-11-20T18:38:02.884Z,82.69
2022-11-20T18:40:37.047Z,82.69
2022-11-20T18:43:26.184Z,82.74
2022-11-20T18:46:06.081Z,82.92
2022-11-20T18:48:35.647Z,83.07
2022-11-20T18:51:09.053Z,82.90
2022-11-20T18:53:43.055Z,82.77
2022-11-20T18:56:16.938Z,82.57
2022-11-20T18:58:47.614Z,82.59
2022-11-20T19:01:17.911Z,82.54
2022-11-20T19:03:48.229Z,82.54
2022-11-20T19:06:18.557Z,82.44
2022-11-20T19:08:48.854Z,82.29
2022-11-20T19:11:19.986Z,82.18
2022-11-20T19:13:50.309Z,82.20
2022-11-20T19:16:22.970Z,82.07
2022-11-20T19:18:52.997Z,81.68
2022-11-20T19:21:25.722Z,81.83
2022-11-20T19:23:58.733Z,82.23
2022-11-20T19:26:29.781Z,82.06
2022-11-20T19:29:00.267Z,81.98
2022-11-20T19:31:30.648Z,82.17
2022-11-20T19:34:03.060Z,82.72
2022-11-20T19:36:39.164Z,82.46
2022-11-20T19:39:13.321Z,82.47
2022-11-20T19:41:44.129Z,82.52
2022-11-20T19:44:16.026Z,82.43
2022-11-20T19:46:46.108Z,82.31
2022-11-20T19:49:16.208Z,82.25
2022-11-20T19:51:49.274Z,81.97
2022-11-20T19:54:19.975Z,82.03
2022-11-20T19:56:51.091Z,82.13
2022-11-20T19:59:21.555Z,82.19
2022-11-20T20:01:52.763Z,82.22
2022-11-20T20:04:22.548Z,82.17
2022-11-20T20:06:52.509Z,82.32
2022-11-20T20:09:24.144Z,82.19
2022-11-20T20:11:54.416Z,82.02
2022-11-20T20:14:24.745Z,82.13
2022-11-20T20:16:57.172Z,82.16
2022-11-20T20:19:27.604Z,82.34
2022-11-20T20:21:57.540Z,82.44
2022-11-20T20:24:27.974Z,82.66
2022-11-20T20:26:58.591Z,82.59
2022-11-20T20:29:28.846Z,82.58
2022-11-20T20:31:57.710Z,82.57
2022-11-20T20:34:32.467Z,82.90
2022-11-20T20:37:05.648Z,82.71
2022-11-20T20:39:35.617Z,82.84
2022-11-20T20:42:04.447Z,83.03
2022-11-20T20:44:54.562Z,82.97
2022-11-20T20:47:25.081Z,82.74
2022-11-20T20:49:55.448Z,82.98
2022-11-20T20:52:28.401Z,82.80
2022-11-20T20:54:58.997Z,82.91
2022-11-20T20:57:29.670Z,82.23
2022-11-20T21:00:00.140Z,82.17
2022-11-20T21:02:30.686Z,82.57
2022-11-20T21:05:01.286Z,82.98
2022-11-20T21:07:31.552Z,82.97
2022-11-20T21:10:01.891Z,82.91
2022-11-20T21:12:30.854Z,83.05
2022-11-20T21:15:01.088Z,83.00
2022-11-20T21:17:31.354Z,82.67
2022-11-20T21:20:22.406Z,82.75
2022-11-20T21:22:52.350Z,82.97
2022-11-20T21:25:22.578Z,83.18
2022-11-20T21:27:52.916Z,83.08
2022-11-20T21:30:22.922Z,83.00
2022-11-20T21:32:52.823Z,82.76
2022-11-20T21:35:22.805Z,82.56
2022-11-20T21:37:53.090Z,82.57
2022-11-20T21:40:23.107Z,82.74
2022-11-20T21:42:54.455Z,82.69
2022-11-20T21:45:24.508Z,82.75
2022-11-20T21:47:54.791Z,82.25
2022-11-20T21:50:24.990Z,82.16
2022-11-20T21:52:53.724Z,82.43
2022-11-20T21:55:26.995Z,83.10
2022-11-20T21:57:57.280Z,83.06
2022-11-20T22:00:27.730Z,83.31
2022-11-20T22:02:56.579Z,83.49
2022-11-20T22:05:26.929Z,83.38
2022-11-20T22:07:57.347Z,83.28
2022-11-20T22:10:28.387Z,83.37
2022-11-20T22:13:20.072Z,83.57
2022-11-20T22:16:04.614Z,83.54
2022-11-20T22:18:43.640Z,83.29
2022-11-20T22:21:15.374Z,83.41
2022-11-20T22:23:45.679Z,83.33
2022-11-20T22:26:19.195Z,83.25
2022-11-20T22:28:50.111Z,83.23
2022-11-20T22:31:21.747Z,83.13
2022-11-20T22:33:51.528Z,83.17
2022-11-20T22:36:28.756Z,83.20
2022-11-20T22:39:03.650Z,83.22
2022-11-20T22:41:34.257Z,83.01
2022-11-20T22:44:07.044Z,83.09
2022-11-20T22:46:38.957Z,83.19
2022-11-20T22:49:09.454Z,83.27
2022-11-20T22:51:41.413Z,83.09
2022-11-20T22:54:13.263Z,83.06
2022-11-20T22:56:43.979Z,83.08
2022-11-20T22:59:14.141Z,83.04
2022-11-20T23:01:44.555Z,83.16
2022-11-20T23:04:16.611Z,82.94
2022-11-20T23:06:46.585Z,83.14
2022-11-20T23:09:16.209Z,83.00
2022-11-20T23:11:46.198Z,82.82
2022-11-20T23:14:18.131Z,82.73
2022-11-20T23:16:48.186Z,82.91
2022-11-20T23:19:19.495Z,82.96
2022-11-20T23:21:51.068Z,82.92
2022-11-20T23:24:21.135Z,82.71
2022-11-20T23:26:51.667Z,82.72
2022-11-20T23:29:20.564Z,82.80
2022-11-20T23:31:50.714Z,82.67
2022-11-20T23:34:20.975Z,82.68
2022-11-20T23:36:51.061Z,82.62
2022-11-20T23:39:22.448Z,82.56
2022-11-20T23:41:52.050Z,82.32
2022-11-20T23:44:24.036Z,81.89
2022-11-20T23:46:54.344Z,81.95
2022-11-20T23:49:24.586Z,82.27
2022-11-20T23:51:53.749Z,82.76
2022-11-20T23:54:23.856Z,82.89
2022-11-20T23:56:54.077Z,82.85
2022-11-20T23:59:24.116Z,82.70
